createdAt,value
2022-11-18T00:01:23.111Z,1.00
2022-11-18T00:03:52.688Z,1.50
2022-11-18T00:06:26.240Z,1.10
2022-11-18T00:08:54.823Z,1.37
2022-11-18T00:11:44.217Z,1.30
2022-11-18T00:14:24.857Z,1.20
2022-11-18T00:16:51.791Z,1.60
2022-11-18T00:19:21.391Z,2.20
2022-11-18T00:21:48.588Z,2.10
2022-11-18T00:24:15.780Z,2.07
2022-11-18T00:26:42.857Z,1.90
2022-11-18T00:29:10.988Z,1.50
2022-11-18T00:31:38.914Z,2.00
2022-11-18T00:34:06.603Z,1.60
2022-11-18T00:36:34.073Z,1.40
2022-11-18T00:39:01.144Z,1.40
2022-11-18T00:41:48.097Z,1.50
2022-11-18T00:44:14.947Z,1.50
2022-11-18T00:46:42.744Z,1.80
2022-11-18T00:49:10.202Z,1.70
2022-11-18T00:51:38.119Z,2.47
2022-11-18T00:54:05.835Z,2.13
2022-11-18T00:56:33.122Z,2.00
2022-11-18T00:59:00.191Z,1.90
2022-11-18T01:01:27.362Z,2.73
2022-11-18T01:03:54.511Z,2.73
2022-11-18T01:06:21.680Z,2.50
2022-11-18T01:08:48.629Z,2.00
2022-11-18T01:11:34.369Z,2.03
2022-11-18T01:14:01.690Z,2.40
2022-11-18T01:16:29.670Z,2.63
2022-11-18T01:18:57.268Z,2.20
2022-11-18T01:21:25.327Z,2.60
2022-11-18T01:23:52.338Z,3.10
2022-11-18T01:26:19.387Z,3.00
2022-11-18T01:28:46.479Z,3.40
2022-11-18T01:31:17.194Z,3.87
2022-11-18T01:33:45.431Z,3.50
2022-11-18T01:36:16.503Z,3.77
2022-11-18T01:38:43.915Z,3.20
2022-11-18T01:41:11.102Z,3.63
2022-11-18T01:44:01.462Z,4.67
2022-11-18T01:46:32.075Z,4.10
2022-11-18T01:49:10.273Z,4.57
2022-11-18T01:51:55.955Z,4.67
2022-11-18T01:54:32.683Z,5.97
2022-11-18T01:57:04.152Z,5.30
2022-11-18T01:59:36.487Z,4.63
2022-11-18T02:02:10.399Z,3.60
2022-11-18T02:04:43.721Z,3.87
2022-11-18T02:07:11.716Z,3.73
2022-11-18T02:09:39.168Z,3.70
2022-11-18T02:12:08.271Z,3.07
2022-11-18T02:14:43.209Z,3.20
2022-11-18T02:17:43.672Z,3.50
2022-11-18T02:20:30.643Z,3.13
2022-11-18T02:23:45.442Z,2.80
2022-11-18T02:26:36.594Z,3.07
2022-11-18T02:29:41.433Z,2.77
2022-11-18T02:32:46.916Z,2.90
2022-11-18T02:35:47.224Z,3.00
2022-11-18T02:38:27.195Z,2.43
2022-11-18T02:41:02.286Z,2.00
2022-11-18T02:43:46.492Z,2.40
2022-11-18T02:46:20.046Z,2.40
2022-11-18T02:48:52.152Z,2.17
2022-11-18T02:51:27.483Z,1.70
2022-11-18T02:53:59.778Z,2.10
2022-11-18T02:56:28.395Z,1.70
2022-11-18T02:58:55.577Z,1.67
2022-11-18T03:01:30.156Z,1.70
2022-11-18T03:03:57.433Z,1.20
2022-11-18T03:06:48.714Z,2.43
2022-11-18T03:09:27.003Z,1.10
2022-11-18T03:12:24.861Z,1.00
2022-11-18T03:14:51.683Z,1.00
2022-11-18T03:17:54.519Z,0.90
2022-11-18T03:20:33.778Z,1.30
2022-11-18T03:24:04.883Z,1.00
2022-11-18T03:26:36.571Z,1.00
2022-11-18T03:29:18.019Z,0.90
2022-11-18T03:32:01.111Z,0.90
2022-11-18T03:34:39.457Z,1.27
2022-11-18T03:37:11.508Z,1.07
2022-11-18T03:39:45.654Z,1.03
2022-11-18T03:42:16.444Z,0.97
2022-11-18T03:44:52.524Z,1.00
2022-11-18T03:47:32.744Z,1.20
2022-11-18T03:50:16.224Z,1.20
2022-11-18T03:52:44.401Z,1.30
2022-11-18T03:55:20.991Z,1.37
2022-11-18T03:57:55.923Z,1.00
2022-11-18T04:00:24.025Z,1.40
2022-11-18T04:02:52.305Z,1.20
2022-11-18T04:05:20.230Z,0.90
2022-11-18T04:07:58.079Z,1.17
2022-11-18T04:10:42.948Z,1.10
2022-11-18T04:13:23.374Z,0.83
2022-11-18T04:15:50.703Z,0.90
2022-11-18T04:18:22.770Z,1.10
2022-11-18T04:20:49.791Z,0.90
2022-11-18T04:23:16.687Z,1.13
2022-11-18T04:25:43.577Z,0.90
2022-11-18T04:28:15.437Z,0.90
2022-11-18T04:30:42.365Z,0.77
2022-11-18T04:33:11.472Z,0.77
2022-11-18T04:35:38.406Z,1.20
2022-11-18T04:38:05.370Z,0.80
2022-11-18T04:40:32.244Z,0.70
2022-11-18T04:42:59.168Z,0.70
2022-11-18T04:45:27.183Z,0.70
2022-11-18T04:48:00.326Z,0.70
2022-11-18T04:50:30.147Z,0.60
2022-11-18T04:52:57.028Z,1.00
2022-11-18T04:55:27.262Z,0.70
2022-11-18T04:57:54.191Z,0.60
2022-11-18T05:00:22.442Z,0.70
2022-11-18T05:02:49.547Z,1.53
2022-11-18T05:05:16.459Z,0.60
2022-11-18T05:07:43.473Z,1.00
2022-11-18T05:10:10.580Z,0.67
2022-11-18T05:12:49.307Z,0.60
2022-11-18T05:15:17.902Z,0.60
2022-11-18T05:17:45.302Z,0.70
2022-11-18T05:20:13.164Z,0.60
2022-11-18T05:22:41.587Z,0.63
2022-11-18T05:25:12.623Z,0.60
2022-11-18T05:27:39.609Z,0.63
2022-11-18T05:30:07.244Z,0.60
2022-11-18T05:32:34.106Z,0.80
2022-11-18T05:35:00.984Z,0.60
2022-11-18T05:37:28.969Z,0.60
2022-11-18T05:40:05.869Z,0.70
2022-11-18T05:42:55.242Z,0.70
2022-11-18T05:45:22.102Z,0.67
2022-11-18T05:48:00.875Z,0.70
2022-11-18T05:50:27.833Z,0.80
2022-11-18T05:52:54.760Z,0.60
2022-11-18T05:55:25.983Z,0.70
2022-11-18T05:57:59.106Z,1.00
2022-11-18T06:00:30.192Z,2.60
2022-11-18T06:02:59.353Z,1.20
2022-11-18T06:05:27.045Z,0.90
2022-11-18T06:07:55.998Z,0.57
2022-11-18T06:10:31.712Z,0.77
2022-11-18T06:13:04.780Z,0.70
2022-11-18T06:15:38.851Z,0.60
2022-11-18T06:18:21.248Z,0.50
2022-11-18T06:20:48.288Z,0.80
2022-11-18T06:23:15.487Z,0.77
2022-11-18T06:25:50.772Z,0.80
2022-11-18T06:28:18.503Z,9.40
2022-11-18T06:30:46.503Z,5.07
2022-11-18T06:33:16.553Z,3.63
2022-11-18T06:35:44.016Z,2.87
2022-11-18T06:38:12.124Z,12.27
2022-11-18T06:40:39.124Z,28.87
2022-11-18T06:43:31.521Z,22.07
2022-11-18T06:46:19.227Z,16.20
2022-11-18T06:48:46.915Z,2.57
2022-11-18T06:51:17.231Z,1.50
2022-11-18T06:53:54.640Z,1.70
2022-11-18T06:56:22.971Z,1.20
2022-11-18T06:58:58.342Z,1.97
2022-11-18T07:01:29.093Z,1.23
2022-11-18T07:03:59.508Z,1.37
2022-11-18T07:06:30.275Z,1.27
2022-11-18T07:08:57.316Z,1.90
2022-11-18T07:11:25.901Z,1.40
2022-11-18T07:14:01.382Z,0.80
2022-11-18T07:16:31.392Z,0.80
2022-11-18T07:19:10.661Z,0.90
2022-11-18T07:21:38.006Z,1.00
2022-11-18T07:24:09.648Z,0.90
2022-11-18T07:26:38.702Z,0.97
2022-11-18T07:29:06.302Z,0.83
2022-11-18T07:31:35.203Z,0.90
2022-11-18T07:34:04.184Z,1.07
2022-11-18T07:36:35.673Z,1.00
2022-11-18T07:39:06.879Z,0.80
2022-11-18T07:41:34.331Z,0.90
2022-11-18T07:44:05.298Z,0.80
2022-11-18T07:46:49.465Z,0.90
2022-11-18T07:49:17.660Z,0.97
2022-11-18T07:51:44.675Z,1.47
2022-11-18T07:54:14.046Z,0.80
2022-11-18T07:56:44.386Z,0.80
2022-11-18T07:59:26.805Z,1.00
2022-11-18T08:02:15.348Z,1.50
2022-11-18T08:04:42.360Z,1.50
2022-11-18T08:07:12.398Z,1.47
2022-11-18T08:09:39.332Z,1.13
2022-11-18T08:12:06.894Z,1.27
2022-11-18T08:14:41.256Z,1.00
2022-11-18T08:17:08.156Z,1.17
2022-11-18T08:19:35.388Z,1.00
2022-11-18T08:22:02.346Z,0.73
2022-11-18T08:24:29.507Z,1.13
2022-11-18T08:26:56.480Z,1.30
2022-11-18T08:29:25.335Z,1.20
2022-11-18T08:31:52.648Z,1.60
2022-11-18T08:34:19.662Z,1.77
2022-11-18T08:36:46.572Z,1.60
2022-11-18T08:39:13.688Z,1.93
2022-11-18T08:41:43.905Z,2.43
2022-11-18T08:44:14.346Z,2.20
2022-11-18T08:46:46.120Z,2.87
2022-11-18T08:49:13.240Z,2.53
2022-11-18T08:51:40.282Z,2.10
2022-11-18T08:54:07.257Z,2.30
2022-11-18T08:56:34.260Z,2.30
2022-11-18T08:59:01.356Z,2.30
2022-11-18T09:01:28.408Z,2.07
2022-11-18T09:03:55.858Z,1.70
2022-11-18T09:06:24.857Z,1.50
2022-11-18T09:08:53.070Z,1.20
2022-11-18T09:11:23.641Z,1.63
2022-11-18T09:16:43.235Z,1.40
2022-11-18T09:19:32.025Z,1.50
2022-11-18T09:21:57.237Z,1.97
2022-11-18T09:24:24.228Z,2.33
2022-11-18T09:26:53.515Z,2.23
2022-11-18T09:29:25.310Z,2.33
2022-11-18T09:31:53.999Z,2.80
2022-11-18T09:34:22.052Z,2.40
2022-11-18T09:36:49.756Z,2.27
2022-11-18T09:39:17.005Z,3.10
2022-11-18T09:41:51.976Z,2.47
2022-11-18T09:44:34.854Z,2.27
2022-11-18T09:47:25.258Z,1.80
2022-11-18T09:49:54.826Z,1.70
2022-11-18T09:52:46.817Z,1.63
2022-11-18T09:55:17.823Z,1.83
2022-11-18T09:57:52.531Z,1.80
2022-11-18T10:00:23.151Z,2.13
2022-11-18T10:03:05.047Z,2.00
2022-11-18T10:06:11.882Z,2.80
2022-11-18T10:09:10.701Z,2.50
2022-11-18T10:11:52.166Z,2.83
2022-11-18T10:14:33.075Z,3.17
2022-11-18T10:17:58.064Z,2.73
2022-11-18T10:21:17.680Z,2.93
2022-11-18T10:24:03.279Z,2.50
2022-11-18T10:26:39.622Z,2.70
2022-11-18T10:29:10.881Z,2.70
2022-11-18T10:31:40.156Z,2.87
2022-11-18T10:34:10.770Z,2.90
2022-11-18T10:36:38.032Z,2.80
2022-11-18T10:39:16.492Z,2.97
2022-11-18T10:41:53.559Z,2.30
2022-11-18T10:44:38.509Z,2.30
2022-11-18T10:47:30.795Z,1.80
2022-11-18T10:50:10.356Z,1.97
2022-11-18T10:52:53.441Z,1.90
2022-11-18T10:55:26.296Z,2.20
2022-11-18T10:58:08.470Z,1.30
2022-11-18T11:00:49.192Z,1.73
2022-11-18T11:03:22.387Z,1.30
2022-11-18T11:06:15.819Z,1.10
2022-11-18T11:08:58.557Z,0.87
2022-11-18T11:11:51.465Z,1.20
2022-11-18T11:14:37.831Z,0.90
2022-11-18T11:17:43.278Z,1.10
2022-11-18T11:20:23.876Z,1.10
2022-11-18T11:22:51.957Z,0.80
2022-11-18T11:28:18.237Z,1.23
2022-11-18T11:31:26.326Z,0.90
2022-11-18T11:34:17.584Z,0.80
2022-11-18T11:36:59.305Z,0.97
2022-11-18T11:39:47.160Z,1.10
2022-11-18T11:42:42.366Z,1.50
2022-11-18T11:45:58.209Z,1.10
2022-11-18T11:48:37.167Z,1.00
2022-11-18T11:51:32.210Z,1.20
2022-11-18T11:54:31.013Z,1.73
2022-11-18T11:57:24.938Z,1.33
2022-11-18T12:00:13.435Z,0.80
2022-11-18T12:03:33.167Z,1.07
2022-11-18T12:06:00.155Z,1.30
2022-11-18T12:08:31.661Z,1.10
2022-11-18T12:11:34.510Z,1.00
2022-11-18T12:14:28.735Z,1.10
2022-11-18T12:17:17.268Z,1.23
2022-11-18T12:19:44.315Z,1.43
2022-11-18T12:22:11.287Z,1.30
2022-11-18T12:24:44.007Z,1.43
2022-11-18T12:27:39.956Z,1.30
2022-11-18T12:30:19.171Z,1.27
2022-11-18T12:32:46.859Z,1.33
2022-11-18T12:35:13.918Z,1.23
2022-11-18T12:37:52.754Z,1.50
2022-11-18T12:40:52.719Z,1.20
2022-11-18T12:43:44.540Z,1.30
2022-11-18T12:46:40.131Z,1.20
2022-11-18T12:49:24.526Z,1.30
2022-11-18T12:51:57.834Z,1.77
2022-11-18T12:54:32.159Z,1.90
2022-11-18T12:57:05.098Z,1.43
2022-11-18T12:59:37.539Z,1.10
2022-11-18T13:02:30.481Z,1.47
2022-11-18T13:05:19.017Z,1.47
2022-11-18T13:08:14.032Z,1.30
2022-11-18T13:10:44.312Z,1.30
2022-11-18T13:13:34.598Z,1.40
2022-11-18T13:16:42.751Z,1.50
2022-11-18T13:19:10.057Z,1.77
2022-11-18T13:21:55.524Z,1.73
2022-11-18T13:24:23.453Z,2.20
2022-11-18T13:26:58.094Z,1.40
2022-11-18T13:30:12.591Z,1.03
2022-11-18T13:32:47.877Z,1.40
2022-11-18T13:35:20.248Z,1.37
2022-11-18T13:38:00.951Z,1.30
2022-11-18T13:41:03.547Z,1.00
2022-11-18T13:43:32.271Z,1.50
2022-11-18T13:46:10.387Z,1.17
2022-11-18T13:48:43.138Z,1.30
2022-11-18T13:51:10.231Z,0.90
2022-11-18T13:53:41.157Z,1.10
2022-11-18T13:56:33.332Z,1.17
2022-11-18T13:59:29.193Z,1.07
2022-11-18T14:01:59.441Z,1.20
2022-11-18T14:04:30.686Z,1.20
2022-11-18T14:07:27.884Z,1.30
2022-11-18T14:10:05.216Z,1.30
2022-11-18T14:12:35.051Z,1.63
2022-11-18T14:15:31.956Z,1.13
2022-11-18T14:18:01.562Z,1.30
2022-11-18T14:20:30.433Z,1.23
2022-11-18T14:23:00.441Z,1.10
2022-11-18T14:25:33.954Z,1.37
2022-11-18T14:28:37.104Z,1.10
2022-11-18T14:31:13.282Z,1.70
2022-11-18T14:33:40.155Z,1.60
2022-11-18T14:36:17.909Z,1.60
2022-11-18T14:41:46.921Z,0.90
2022-11-18T14:44:16.235Z,1.63
2022-11-18T14:46:53.681Z,1.20
2022-11-18T14:49:23.635Z,1.20
2022-11-18T14:51:52.798Z,1.23
2022-11-18T14:54:26.314Z,1.37
2022-11-18T14:57:02.790Z,1.20
2022-11-18T14:59:30.213Z,1.10
2022-11-18T15:01:58.540Z,1.10
2022-11-18T15:04:26.293Z,1.30
2022-11-18T15:06:53.552Z,1.10
2022-11-18T15:09:20.880Z,1.63
2022-11-18T15:11:48.035Z,1.47
2022-11-18T15:14:16.268Z,1.57
2022-11-18T15:16:44.582Z,2.23
2022-11-18T15:19:15.347Z,1.70
2022-11-18T15:21:43.631Z,1.60
2022-11-18T15:24:10.531Z,1.70
2022-11-18T15:26:44.672Z,1.40
2022-11-18T15:29:21.295Z,1.00
2022-11-18T15:31:48.763Z,1.13
2022-11-18T15:34:18.318Z,1.20
2022-11-18T15:36:45.691Z,1.30
2022-11-18T15:39:13.752Z,1.70
2022-11-18T15:41:42.964Z,1.37
2022-11-18T15:44:11.602Z,1.43
2022-11-18T15:46:39.511Z,1.13
2022-11-18T15:49:09.586Z,2.00
2022-11-18T15:51:40.538Z,1.37
2022-11-18T15:54:08.501Z,2.90
2022-11-18T15:56:35.923Z,5.73
2022-11-18T15:59:14.452Z,3.40
2022-11-18T16:01:45.293Z,4.40
2022-11-18T16:04:16.032Z,1.80
2022-11-18T16:06:43.704Z,1.60
2022-11-18T16:09:13.421Z,1.73
2022-11-18T16:11:59.015Z,1.20
2022-11-18T16:14:27.598Z,1.90
2022-11-18T16:17:00.561Z,1.20
2022-11-18T16:19:31.304Z,1.67
2022-11-18T16:21:58.212Z,1.47
2022-11-18T16:24:28.637Z,2.00
2022-11-18T16:26:56.001Z,1.50
2022-11-18T16:29:24.325Z,1.70
2022-11-18T16:31:52.866Z,1.40
2022-11-18T16:34:28.026Z,2.73
2022-11-18T16:36:57.978Z,5.83
2022-11-18T16:39:27.372Z,5.70
2022-11-18T16:42:07.870Z,5.07
2022-11-18T16:44:37.090Z,2.50
2022-11-18T16:47:12.427Z,4.30
2022-11-18T16:49:43.932Z,2.90
2022-11-18T16:52:11.016Z,4.70
2022-11-18T16:54:44.180Z,4.07
2022-11-18T16:57:14.581Z,2.43
2022-11-18T16:59:42.598Z,2.30
2022-11-18T17:02:13.112Z,3.10
2022-11-18T17:04:40.614Z,2.40
2022-11-18T17:07:07.902Z,2.10
2022-11-18T17:09:36.104Z,1.70
2022-11-18T17:12:03.803Z,1.80
2022-11-18T17:14:31.987Z,1.57
2022-11-18T17:16:58.950Z,1.83
2022-11-18T17:19:26.203Z,1.70
2022-11-18T17:21:53.511Z,1.60
2022-11-18T17:24:23.070Z,2.10
2022-11-18T17:26:52.000Z,2.00
2022-11-18T17:29:19.513Z,1.67
2022-11-18T17:31:46.668Z,1.87
2022-11-18T17:34:15.848Z,2.03
2022-11-18T17:36:43.470Z,1.57
2022-11-18T17:39:12.101Z,1.60
2022-11-18T17:41:57.801Z,1.73
2022-11-18T17:44:24.934Z,1.43
2022-11-18T17:46:52.028Z,1.63
2022-11-18T17:49:21.293Z,2.47
2022-11-18T17:51:48.774Z,2.37
2022-11-18T17:54:16.229Z,2.37
2022-11-18T17:56:43.435Z,1.70
2022-11-18T17:59:10.514Z,2.27
2022-11-18T18:01:37.533Z,1.57
2022-11-18T18:04:04.745Z,2.20
2022-11-18T18:06:31.680Z,2.13
2022-11-18T18:08:59.008Z,2.30
2022-11-18T18:11:27.421Z,2.40
2022-11-18T18:14:13.342Z,2.00
2022-11-18T18:16:50.864Z,2.10
2022-11-18T18:19:23.555Z,2.03
2022-11-18T18:21:51.038Z,1.77
2022-11-18T18:24:20.093Z,1.57
2022-11-18T18:26:47.537Z,2.60
2022-11-18T18:29:14.736Z,3.23
2022-11-18T18:31:41.856Z,3.30
2022-11-18T18:34:08.796Z,3.90
2022-11-18T18:36:36.024Z,3.10
2022-11-18T18:39:03.481Z,3.10
2022-11-18T18:41:32.276Z,3.33
2022-11-18T18:43:59.873Z,2.40
2022-11-18T18:46:34.084Z,2.60
2022-11-18T18:49:27.515Z,2.60
2022-11-18T18:51:56.227Z,2.80
2022-11-18T18:54:23.288Z,2.43
2022-11-18T18:56:50.231Z,2.80
2022-11-18T18:59:17.345Z,2.00
2022-11-18T19:01:44.460Z,2.87
2022-11-18T19:04:16.547Z,2.23
2022-11-18T19:06:58.219Z,2.17
2022-11-18T19:09:26.345Z,2.60
2022-11-18T19:12:12.477Z,2.80
2022-11-18T19:14:39.955Z,2.87
2022-11-18T19:17:11.358Z,2.50
2022-11-18T19:19:59.213Z,2.53
2022-11-18T19:22:30.270Z,2.53
2022-11-18T19:24:58.030Z,2.50
2022-11-18T19:27:25.413Z,2.80
2022-11-18T19:29:52.437Z,3.00
2022-11-18T19:32:19.494Z,3.03
2022-11-18T19:34:46.584Z,3.90
2022-11-18T19:37:13.513Z,3.93
2022-11-18T19:39:40.386Z,3.77
2022-11-18T19:42:07.668Z,4.03
2022-11-18T19:44:34.654Z,3.97
2022-11-18T19:47:01.541Z,4.07
2022-11-18T19:49:28.530Z,5.00
2022-11-18T19:51:55.511Z,4.40
2022-11-18T19:54:22.475Z,5.60
2022-11-18T19:56:49.477Z,5.70
2022-11-18T19:59:16.570Z,4.10
2022-11-18T20:01:45.857Z,3.53
2022-11-18T20:04:12.873Z,3.50
2022-11-18T20:06:40.401Z,3.13
2022-11-18T20:09:09.466Z,3.73
2022-11-18T20:11:36.582Z,3.70
2022-11-18T20:14:04.130Z,3.10
2022-11-18T20:16:31.583Z,3.47
2022-11-18T20:19:03.911Z,3.30
2022-11-18T20:21:34.903Z,5.60
2022-11-18T20:24:04.671Z,4.13
2022-11-18T20:26:35.329Z,3.10
2022-11-18T20:29:02.557Z,3.30
2022-11-18T20:31:29.765Z,3.50
2022-11-18T20:33:58.352Z,4.07
2022-11-18T20:36:35.499Z,4.80
2022-11-18T20:39:07.238Z,3.37
2022-11-18T20:41:34.956Z,3.03
2022-11-18T20:44:01.906Z,3.50
2022-11-18T20:46:29.370Z,3.07
2022-11-18T20:48:56.548Z,3.80
2022-11-18T20:51:26.500Z,2.40
2022-11-18T20:53:55.639Z,3.00
2022-11-18T20:56:25.442Z,2.50
2022-11-18T20:58:52.905Z,2.50
2022-11-18T21:01:25.538Z,2.80
2022-11-18T21:03:58.235Z,2.80
2022-11-18T21:06:30.832Z,3.80
2022-11-18T21:09:04.594Z,3.77
2022-11-18T21:11:35.215Z,3.20
2022-11-18T21:14:23.566Z,2.97
2022-11-18T21:17:00.321Z,2.60
2022-11-18T21:19:28.756Z,2.30
2022-11-18T21:21:56.725Z,2.40
2022-11-18T21:24:34.837Z,2.17
2022-11-18T21:27:03.679Z,2.93
2022-11-18T21:29:32.365Z,2.20
2022-11-18T21:32:02.960Z,2.23
2022-11-18T21:34:30.381Z,3.10
2022-11-18T21:36:58.503Z,3.57
2022-11-18T21:39:27.275Z,4.17
2022-11-18T21:41:56.642Z,3.27
2022-11-18T21:44:25.037Z,4.50
2022-11-18T21:46:52.139Z,4.07
2022-11-18T21:49:19.515Z,4.33
2022-11-18T21:51:46.544Z,4.10
2022-11-18T21:54:16.015Z,3.90
2022-11-18T21:56:43.299Z,3.97
2022-11-18T21:59:10.316Z,4.57
2022-11-18T22:01:37.274Z,4.67
2022-11-18T22:04:05.906Z,4.77
2022-11-18T22:06:34.376Z,3.90
2022-11-18T22:09:03.952Z,3.77
2022-11-18T22:11:31.220Z,3.07
2022-11-18T22:13:58.329Z,2.73
2022-11-18T22:16:26.926Z,2.63
2022-11-18T22:19:01.523Z,2.40
2022-11-18T22:21:32.092Z,2.60
2022-11-18T22:24:00.812Z,2.97
2022-11-18T22:26:28.900Z,2.63
2022-11-18T22:28:58.156Z,3.47
2022-11-18T22:31:27.362Z,2.50
2022-11-18T22:33:55.779Z,3.07
2022-11-18T22:36:25.550Z,3.00
2022-11-18T22:38:53.157Z,3.37
2022-11-18T22:41:41.672Z,2.40
2022-11-18T22:44:10.679Z,3.20
2022-11-18T22:46:39.657Z,3.20
2022-11-18T22:49:08.048Z,3.40
2022-11-18T22:51:36.617Z,3.20
2022-11-18T22:56:54.667Z,2.60
2022-11-18T22:59:21.939Z,2.70
2022-11-18T23:01:53.666Z,3.20
2022-11-18T23:04:20.781Z,3.17
2022-11-18T23:06:49.364Z,3.37
2022-11-18T23:09:16.652Z,3.00
2022-11-18T23:12:02.302Z,2.90
2022-11-18T23:14:29.423Z,3.77
2022-11-18T23:16:56.314Z,3.20
2022-11-18T23:19:23.393Z,3.10
2022-11-18T23:21:50.610Z,3.47
2022-11-18T23:24:19.162Z,3.90
2022-11-18T23:26:46.962Z,3.63
2022-11-18T23:29:15.231Z,3.60
2022-11-18T23:31:44.924Z,3.67
2022-11-18T23:34:14.486Z,3.17
2022-11-18T23:36:41.978Z,3.07
2022-11-18T23:39:09.120Z,3.33
2022-11-18T23:41:36.283Z,2.73
2022-11-18T23:44:04.270Z,3.90
2022-11-18T23:46:31.829Z,2.90
2022-11-18T23:48:59.023Z,3.80
2022-11-18T23:51:26.325Z,4.40
2022-11-18T23:53:57.878Z,4.40
2022-11-18T23:56:26.854Z,4.23
2022-11-18T23:58:56.576Z,4.23
